Weather at Freedom Wpec Inc Heliport

Public forecast

Using degrees Fahrenheit for public forecast. Weather courtesy of forecast.io.

Closest aviation weather report (METAR) to Freedom Wpec Inc Heliport

Closest report is Palm Beach International Airport, 4.9 nm (9.1 km) SSW.

2024/05/30 09:53 (retrieved 1 hour ago)

KPBI 300953Z 36004KT 10SM FEW250 26/23 A3000 RMK AO2 SLP158 T02560233

Closest aviation forecast (TAF) to Freedom Wpec Inc Heliport

Closest forecast is Palm Beach International Airport, 4.9 nm (9.1 km) SSW.

2024/05/30 09:45 Ammendment (retrieved 1 hour ago)

TAF AMD KPBI 300837Z 3009/3106 VRB05KT P6SM SKC FM301700 08010KT P6SM SCT030 SCT250 FM302100 08011KT P6SM VCTS SCT025CB BKN050 FM310100 VRB05KT P6SM SCT030 SCT060